»·PEaware :: N951TA KVNY-KSNA

N951TA :: KVNY-KSNA

FLIGHT INFORMATION

Flight Status: Arrived
Operator: Privately registered:
United States
More flights under this callsign
Pilot: John H. (7647)
Aircraft: CESSNA 172 SKYHAWK
(C172)
More flights by this aircraft type
Origin: KVNY Van Nuys
United States
Destination: KSNA John Wayne-Orange Co
United States
More flights between these airports :: More routes between these airports
Route: +VPLSR SMO
File this flight plan on PilotEdge
Remarks: CAT-10
Altitude:
(Current/Filed)
2,500ft
Speed:
(Current/Filed)
120kts
Departed: 15-Jul-18 02:29 PM
Arrived: 15-Jul-18 03:18 PM
Distance/Time
Traveled:
45nm/0:49
Distance/Time
To Go:
Arrived

Flight Plot

Page will automatically refresh every two minutes.

Flight plan parsing failed; only flown route is shown


Map Options




Map Legend


Flown Route
Filed Route
Departure Airport
Arrival Airport
Navaid (VOR, NDB)
Fix

Horizontal Profiles

Position Reports

Time Latitude Longitude Heading Altitude Ground
Speed
15-Jul-18 14:19 34.208952 -118.487738 245 806ft 0kts
15-Jul-18 14:20 34.208952 -118.487738 245 806ft 0kts
15-Jul-18 14:21 34.208952 -118.487738 245 806ft 0kts
15-Jul-18 14:22 34.208952 -118.487738 245 806ft 0kts
15-Jul-18 14:23 34.208952 -118.487738 245 806ft 0kts
15-Jul-18 14:24 34.208952 -118.487738 245 806ft 0kts
15-Jul-18 14:25 34.208952 -118.487738 245 806ft 0kts
15-Jul-18 14:26 34.209348 -118.488274 352 806ft 14kts
15-Jul-18 14:27 34.215086 -118.488851 354 806ft 24kts
15-Jul-18 14:28 34.218738 -118.489513 333 806ft 0kts
15-Jul-18 14:29 34.218775 -118.489537 329 806ft 2kts
15-Jul-18 14:30 34.216986 -118.490643 158 806ft 46kts
15-Jul-18 14:31 34.199320 -118.488588 173 1316ft 72kts
15-Jul-18 14:32 34.192941 -118.507275 239 2064ft 64kts
15-Jul-18 14:33 34.174109 -118.503093 165 2502ft 98kts
15-Jul-18 14:34 34.144451 -118.495076 192 2470ft 110kts
15-Jul-18 14:35 34.147974 -118.509111 40 2469ft 124kts
15-Jul-18 14:36 34.128841 -118.497961 186 2460ft 110kts
15-Jul-18 14:37 34.118916 -118.473248 335 2459ft 118kts
15-Jul-18 14:38 34.110874 -118.496044 245 2463ft 107kts
15-Jul-18 14:39 34.115801 -118.516048 47 2474ft 124kts
15-Jul-18 14:40 34.136390 -118.505569 294 2889ft 87kts
15-Jul-18 14:41 34.142103 -118.530083 265 3654ft 67kts
15-Jul-18 14:42 34.141245 -118.549185 325 4261ft 76kts
15-Jul-18 14:43 34.158090 -118.560296 143 4743ft 41kts
15-Jul-18 14:44 34.165543 -118.542311 61 3601ft 96kts
15-Jul-18 14:45 34.168889 -118.540805 84 4229ft 88kts
15-Jul-18 14:46 34.175106 -118.540802 295 4892ft 63kts
15-Jul-18 14:47 34.172020 -118.527441 198 4615ft 70kts
15-Jul-18 14:48 34.158435 -118.521259 116 5167ft 84kts
15-Jul-18 14:49 34.139182 -118.518024 186 5550ft 96kts
15-Jul-18 14:50 34.110388 -118.508713 164 5443ft 102kts
15-Jul-18 14:51 34.084613 -118.497170 162 5494ft 101kts
15-Jul-18 14:52 34.058556 -118.485176 162 5494ft 105kts
15-Jul-18 14:53 34.031066 -118.472967 166 5494ft 105kts
15-Jul-18 14:54 34.003118 -118.462971 168 5492ft 105kts
15-Jul-18 14:55 33.975197 -118.454961 179 5489ft 106kts
15-Jul-18 14:56 33.945845 -118.451348 154 5496ft 113kts
15-Jul-18 14:57 33.924141 -118.422619 122 5498ft 119kts
15-Jul-18 14:58 33.901439 -118.395693 146 5494ft 115kts
15-Jul-18 14:59 33.878421 -118.370442 144 5494ft 115kts
15-Jul-18 15:00 33.854407 -118.344959 130 5496ft 121kts
15-Jul-18 15:01 33.833951 -118.311227 130 5493ft 120kts
15-Jul-18 15:02 33.814825 -118.279715 130 5492ft 115kts
15-Jul-18 15:03 33.795892 -118.248555 129 5496ft 127kts
15-Jul-18 15:04 33.775274 -118.214718 129 5490ft 123kts
15-Jul-18 15:05 33.755269 -118.182003 130 5469ft 118kts
15-Jul-18 15:06 33.737720 -118.153250 130 5469ft 109kts
15-Jul-18 15:07 33.720007 -118.124086 130 5468ft 108kts
15-Jul-18 15:08 33.702744 -118.095767 130 5466ft 107kts
15-Jul-18 15:09 33.685073 -118.066960 131 5469ft 107kts
15-Jul-18 15:10 33.678153 -118.034333 71 5468ft 115kts
15-Jul-18 15:11 33.694143 -118.002713 53 5165ft 113kts
15-Jul-18 15:12 33.713728 -117.973324 61 4475ft 113kts
15-Jul-18 15:13 33.730076 -117.941247 62 3780ft 113kts
15-Jul-18 15:14 33.732911 -117.912908 186 3049ft 81kts
15-Jul-18 15:15 33.721732 -117.890677 127 1988ft 72kts
15-Jul-18 15:16 33.712857 -117.869815 125 984ft 71kts
15-Jul-18 15:17 33.703165 -117.852906 170 482ft 64kts
15-Jul-18 15:18 33.686984 -117.861613 207 191ft 58kts
15-Jul-18 15:19 33.677419 -117.866902 122 60ft 9kts
15-Jul-18 15:20 33.677056 -117.865982 113 60ft 14kts
15-Jul-18 15:21 33.675926 -117.865930 206 60ft 16kts
15-Jul-18 15:22 33.673243 -117.867123 215 60ft 0kts
15-Jul-18 15:23 33.673243 -117.867124 215 60ft 0kts
15-Jul-18 15:24 33.673241 -117.867125 215 60ft 0kts
15-Jul-18 15:25 33.672671 -117.866386 250 60ft 0kts
15-Jul-18 15:26 33.672671 -117.866386 250 60ft 0kts
15-Jul-18 15:27 33.672671 -117.866386 250 60ft 0kts
15-Jul-18 15:28 33.672671 -117.866386 250 60ft 0kts
15-Jul-18 15:29 33.672671 -117.866386 250 60ft 0kts
15-Jul-18 15:30 33.672671 -117.866386 250 60ft 0kts
15-Jul-18 15:31 33.672671 -117.866385 250 60ft 0kts

Navigation Log

Ident Type
Flight plan parsing failed, navigation log unavailable